createdAt,value
2022-08-22T00:02:23.799Z,22.30
2022-08-22T00:03:07.954Z,22.80
2022-08-22T00:03:15.861Z,22.80
2022-08-22T00:05:22.671Z,22.20
2022-08-22T00:08:17.366Z,22.20
2022-08-22T00:13:49.634Z,22.10
2022-08-22T00:16:45.793Z,22.10
2022-08-22T00:19:42.672Z,22.10
2022-08-22T00:25:29.701Z,22.00
2022-08-22T00:28:24.230Z,22.00
2022-08-22T00:31:21.441Z,21.90
2022-08-22T00:34:15.448Z,21.90
2022-08-22T00:37:09.972Z,21.80
2022-08-22T00:42:55.341Z,21.90
2022-08-22T00:49:06.482Z,21.80
2022-08-22T00:55:05.498Z,21.70
2022-08-22T00:58:08.388Z,21.60
2022-08-22T01:01:03.602Z,21.60
2022-08-22T01:04:23.378Z,21.60
2022-08-22T01:07:23.076Z,21.60
2022-08-22T01:10:24.381Z,21.50
2022-08-22T01:13:26.834Z,21.40
2022-08-22T01:16:25.703Z,21.30
2022-08-22T01:20:06.210Z,21.30
2022-08-22T01:23:27.662Z,21.30
2022-08-22T01:27:08.809Z,21.20
2022-08-22T01:30:19.185Z,21.10
2022-08-22T01:33:55.720Z,21.10
2022-08-22T01:37:23.384Z,21.00
2022-08-22T01:40:54.013Z,20.80
2022-08-22T01:44:00.501Z,20.70
2022-08-22T01:46:55.665Z,20.60
2022-08-22T01:49:50.091Z,20.50
2022-08-22T01:52:44.536Z,20.40
2022-08-22T01:55:38.871Z,20.30
2022-08-22T02:01:19.981Z,20.20
2022-08-22T02:07:04.847Z,20.20
2022-08-22T02:10:03.353Z,20.10
2022-08-22T02:13:00.653Z,20.20
2022-08-22T02:15:54.917Z,20.10
2022-08-22T02:18:54.036Z,20.10
2022-08-22T02:21:48.848Z,20.20
2022-08-22T02:24:48.904Z,20.10
2022-08-22T02:27:47.364Z,20.00
2022-08-22T02:30:49.622Z,19.80
2022-08-22T02:33:46.037Z,19.80
2022-08-22T02:39:22.898Z,19.60
2022-08-22T02:42:21.439Z,19.50
2022-08-22T02:45:15.616Z,19.40
2022-08-22T02:50:47.800Z,19.40
2022-08-22T02:53:43.055Z,19.30
2022-08-22T02:56:37.244Z,19.30
2022-08-22T02:59:36.731Z,19.30
2022-08-22T03:02:38.484Z,19.40
2022-08-22T03:05:31.977Z,19.20
2022-08-22T03:08:27.048Z,19.00
2022-08-22T03:11:23.349Z,19.00
2022-08-22T03:17:00.885Z,18.90
2022-08-22T03:19:56.337Z,18.90
2022-08-22T03:22:51.413Z,18.80
2022-08-22T03:25:45.731Z,18.90
2022-08-22T03:28:40.454Z,18.70
2022-08-22T03:31:35.072Z,18.70
2022-08-22T03:34:29.513Z,18.80
2022-08-22T03:37:24.064Z,18.80
2022-08-22T03:40:31.534Z,18.80
2022-08-22T03:43:42.809Z,18.80
2022-08-22T03:47:04.901Z,18.80
2022-08-22T03:50:30.294Z,18.90
2022-08-22T03:54:02.998Z,18.90
2022-08-22T04:00:29.303Z,18.90
2022-08-22T04:10:24.935Z,18.90
2022-08-22T04:16:41.318Z,18.70
2022-08-22T04:20:01.615Z,18.70
2022-08-22T04:23:02.861Z,18.80
2022-08-22T04:25:57.646Z,18.80
2022-08-22T04:31:32.585Z,18.80
2022-08-22T04:34:29.797Z,18.80
2022-08-22T04:37:24.824Z,18.80
2022-08-22T04:40:20.592Z,18.80
2022-08-22T04:45:55.337Z,18.90
2022-08-22T04:48:51.139Z,18.90
2022-08-22T04:54:33.722Z,18.90
2022-08-22T04:57:29.274Z,18.80
2022-08-22T05:00:20.621Z,18.70
2022-08-22T05:03:16.506Z,18.70
2022-08-22T05:08:53.814Z,18.70
2022-08-22T05:11:45.519Z,18.60
2022-08-22T05:17:27.429Z,18.60
2022-08-22T05:20:22.030Z,18.60
2022-08-22T05:23:17.399Z,18.60
2022-08-22T05:26:11.023Z,18.60
2022-08-22T05:29:05.154Z,18.60
2022-08-22T05:32:01.043Z,18.70
2022-08-22T05:37:37.604Z,18.80
2022-08-22T05:40:31.562Z,18.80
2022-08-22T05:43:25.415Z,18.90
2022-08-22T05:46:20.345Z,18.90
2022-08-22T05:49:20.609Z,19.00
2022-08-22T05:55:01.245Z,19.10
2022-08-22T05:57:55.283Z,19.40
2022-08-22T06:03:30.510Z,19.30
2022-08-22T06:06:22.630Z,19.30
2022-08-22T06:09:19.426Z,19.40
2022-08-22T06:12:22.283Z,19.40
2022-08-22T06:17:52.204Z,19.50
2022-08-22T06:20:47.383Z,19.50
2022-08-22T06:26:27.090Z,19.60
2022-08-22T06:29:22.051Z,19.70
2022-08-22T06:32:31.538Z,19.80
2022-08-22T06:40:38.325Z,20.00
2022-08-22T06:43:31.358Z,20.00
2022-08-22T06:46:24.719Z,20.00
2022-08-22T06:49:19.076Z,20.10
2022-08-22T06:52:13.072Z,20.10
2022-08-22T06:55:06.896Z,20.20
2022-08-22T06:58:01.100Z,20.20
2022-08-22T07:03:40.521Z,20.20
2022-08-22T07:06:34.522Z,20.50
2022-08-22T07:09:28.274Z,20.40
2022-08-22T07:12:22.989Z,20.40
2022-08-22T07:15:26.436Z,20.30
2022-08-22T07:21:09.315Z,20.30
2022-08-22T07:24:02.668Z,20.40
2022-08-22T07:27:01.371Z,20.40
2022-08-22T07:30:06.383Z,20.40
2022-08-22T07:33:25.261Z,20.40
2022-08-22T07:36:07.650Z,20.40
2022-08-22T07:39:21.646Z,20.50
2022-08-22T07:45:05.353Z,20.60
2022-08-22T07:48:25.423Z,20.70
2022-08-22T07:51:13.722Z,20.70
2022-08-22T07:54:08.321Z,20.70
2022-08-22T07:59:46.139Z,20.80
2022-08-22T08:02:37.207Z,20.90
2022-08-22T08:05:33.649Z,20.90
2022-08-22T08:08:28.022Z,20.90
2022-08-22T08:14:03.799Z,21.00
2022-08-22T08:16:57.808Z,21.10
2022-08-22T08:19:50.774Z,21.10
2022-08-22T08:22:45.557Z,21.20
2022-08-22T08:25:40.348Z,21.30
2022-08-22T08:28:41.798Z,21.30
2022-08-22T08:34:21.901Z,21.40
2022-08-22T08:37:36.180Z,21.40
2022-08-22T08:40:39.625Z,21.50
2022-08-22T08:43:41.807Z,21.50
2022-08-22T08:49:50.799Z,21.70
2022-08-22T08:53:01.276Z,21.80
2022-08-22T08:58:44.269Z,22.00
2022-08-22T09:05:34.569Z,22.10
2022-08-22T09:08:50.719Z,22.30
2022-08-22T09:12:04.314Z,22.40
2022-08-22T09:15:14.363Z,22.30
2022-08-22T09:18:44.180Z,22.40
2022-08-22T09:25:06.296Z,22.40
2022-08-22T09:28:08.339Z,22.40
2022-08-22T09:34:11.310Z,22.60
2022-08-22T09:37:14.128Z,22.70
2022-08-22T09:40:16.986Z,22.70
2022-08-22T09:43:11.029Z,22.80
2022-08-22T09:55:00.598Z,23.00
2022-08-22T09:58:05.882Z,23.00
2022-08-22T10:04:49.870Z,23.20
2022-08-22T10:11:17.958Z,23.30
2022-08-22T10:14:22.343Z,23.30
2022-08-22T10:17:21.965Z,23.50
2022-08-22T10:20:16.129Z,23.50
2022-08-22T10:23:14.405Z,23.60
2022-08-22T10:28:54.342Z,23.70
2022-08-22T10:31:59.249Z,23.80
2022-08-22T10:34:52.457Z,23.90
2022-08-22T10:37:48.273Z,24.10
2022-08-22T10:40:52.167Z,24.20
2022-08-22T10:44:01.395Z,24.20
2022-08-22T10:46:56.000Z,24.30
2022-08-22T10:49:53.229Z,24.30
2022-08-22T10:52:58.089Z,24.50
2022-08-22T10:56:02.225Z,24.50
2022-08-22T10:58:58.297Z,24.50
2022-08-22T11:04:44.409Z,24.70
2022-08-22T11:07:50.263Z,24.70
2022-08-22T11:11:19.656Z,24.90
2022-08-22T11:17:41.710Z,25.10
2022-08-22T11:20:32.798Z,25.00
2022-08-22T11:23:29.954Z,25.10
2022-08-22T11:29:15.563Z,25.30
2022-08-22T11:32:12.502Z,25.40
2022-08-22T11:35:16.893Z,25.50
2022-08-22T11:40:52.438Z,25.50
2022-08-22T11:43:56.392Z,25.50
2022-08-22T11:46:50.655Z,25.70
2022-08-22T11:49:52.373Z,25.70
2022-08-22T11:56:05.475Z,25.90
2022-08-22T11:59:01.136Z,25.80
2022-08-22T12:04:37.029Z,26.10
2022-08-22T12:07:40.700Z,26.00
2022-08-22T12:13:50.786Z,26.20
2022-08-22T12:16:47.282Z,26.40
2022-08-22T12:20:05.589Z,26.30
2022-08-22T12:22:54.564Z,26.30
2022-08-22T12:26:18.581Z,26.40
2022-08-22T12:29:33.770Z,26.50
2022-08-22T12:32:58.872Z,26.60
2022-08-22T12:36:01.838Z,26.60
2022-08-22T12:39:24.503Z,26.70
2022-08-22T12:45:28.536Z,26.70
2022-08-22T12:48:26.637Z,26.90
2022-08-22T12:57:58.141Z,27.00
2022-08-22T13:00:52.593Z,27.00
2022-08-22T13:03:48.611Z,27.10
2022-08-22T13:07:00.309Z,27.10
2022-08-22T13:19:07.656Z,27.30
2022-08-22T13:22:06.045Z,27.40
2022-08-22T13:25:00.716Z,27.40
2022-08-22T13:30:45.421Z,27.50
2022-08-22T13:36:31.402Z,27.80
2022-08-22T13:39:29.487Z,27.80
2022-08-22T13:42:30.451Z,27.70
2022-08-22T13:45:21.153Z,27.90
2022-08-22T13:48:15.592Z,28.00
2022-08-22T13:51:11.440Z,28.00
2022-08-22T13:54:14.105Z,28.00
2022-08-22T13:59:56.082Z,28.20
2022-08-22T14:03:01.207Z,28.20
2022-08-22T14:08:59.713Z,28.80
2022-08-22T14:11:53.803Z,29.10
2022-08-22T14:17:42.516Z,29.30
2022-08-22T14:20:39.770Z,29.80
2022-08-22T14:23:34.441Z,30.10
2022-08-22T14:26:33.044Z,30.20
2022-08-22T14:41:52.954Z,31.00
2022-08-22T14:44:47.173Z,31.00
2022-08-22T14:50:43.861Z,31.20
2022-08-22T14:56:30.221Z,31.30
2022-08-22T14:59:38.188Z,31.40
2022-08-22T15:05:20.870Z,31.50
2022-08-22T15:08:31.191Z,31.90
2022-08-22T15:11:32.289Z,31.80
2022-08-22T15:14:28.808Z,31.90
2022-08-22T15:17:44.101Z,31.70
2022-08-22T15:20:52.146Z,31.60
2022-08-22T15:23:46.924Z,31.80
2022-08-22T15:26:41.672Z,31.90
2022-08-22T15:29:48.111Z,32.10
2022-08-22T15:32:49.204Z,32.30
2022-08-22T15:35:49.562Z,31.70
2022-08-22T15:38:54.524Z,31.30
2022-08-22T15:41:53.543Z,31.50
2022-08-22T15:47:32.902Z,31.80
2022-08-22T15:50:34.445Z,31.90
2022-08-22T15:53:30.113Z,32.00
2022-08-22T15:59:44.776Z,32.30
2022-08-22T16:02:35.734Z,32.40
2022-08-22T16:05:30.873Z,32.60
2022-08-22T16:08:27.642Z,32.30
2022-08-22T16:11:33.072Z,32.30
2022-08-22T18:28:48.843Z,26.50
2022-08-22T18:34:40.973Z,26.50
2022-08-22T18:37:42.374Z,26.60
2022-08-22T18:40:54.052Z,26.60
2022-08-22T18:43:57.437Z,26.50
2022-08-22T18:46:51.709Z,26.40
2022-08-22T18:49:54.419Z,26.30
2022-08-22T18:55:54.172Z,26.20
2022-08-22T18:59:05.304Z,26.10
2022-08-22T19:02:11.765Z,26.20
2022-08-22T19:08:53.895Z,26.20
2022-08-22T19:11:50.596Z,26.10
2022-08-22T19:18:29.481Z,26.10
2022-08-22T19:24:10.042Z,26.30
2022-08-22T19:27:31.420Z,26.30
2022-08-22T19:30:42.604Z,26.30
2022-08-22T19:36:36.227Z,26.00
2022-08-22T19:39:54.619Z,25.90
2022-08-22T19:45:29.200Z,25.90
2022-08-22T19:51:12.813Z,25.80
2022-08-22T19:54:16.473Z,25.80
2022-08-22T19:59:59.058Z,25.90
2022-08-22T20:03:08.714Z,25.80
2022-08-22T20:06:05.960Z,25.70
2022-08-22T20:09:05.961Z,25.70
2022-08-22T20:14:44.300Z,25.50
2022-08-22T20:17:44.707Z,25.60
2022-08-22T20:20:47.525Z,25.50
2022-08-22T20:26:24.749Z,25.30
2022-08-22T20:29:19.296Z,25.30
2022-08-22T20:35:23.946Z,25.10
2022-08-22T20:38:18.867Z,25.00
2022-08-22T20:41:20.903Z,24.90
2022-08-22T20:48:25.606Z,24.70
2022-08-22T20:54:16.471Z,24.90
2022-08-22T20:57:18.871Z,24.90
2022-08-22T21:00:15.728Z,24.80
2022-08-22T21:03:11.059Z,24.70
2022-08-22T21:06:14.274Z,24.50
2022-08-22T21:09:32.909Z,24.60
2022-08-22T21:12:26.513Z,24.50
2022-08-22T21:18:06.721Z,24.50
2022-08-22T21:21:17.693Z,24.50
2022-08-22T21:24:10.496Z,24.50
2022-08-22T21:29:47.766Z,24.40
2022-08-22T21:33:05.621Z,24.40
2022-08-22T21:36:25.681Z,24.20
2022-08-22T21:39:19.736Z,24.30
2022-08-22T21:42:17.914Z,24.20
2022-08-22T21:45:09.077Z,24.30
2022-08-22T21:48:04.878Z,24.30
2022-08-22T21:51:39.840Z,24.40
2022-08-22T21:54:47.799Z,24.40
2022-08-22T21:57:43.471Z,24.30
2022-08-22T22:00:49.940Z,24.30
2022-08-22T22:06:22.243Z,24.30
2022-08-22T22:09:22.727Z,24.30
2022-08-22T22:12:16.398Z,24.30
2022-08-22T22:15:09.740Z,24.20
2022-08-22T22:18:16.833Z,24.20
2022-08-22T22:21:09.229Z,24.10
2022-08-22T22:24:07.037Z,24.20
2022-08-22T22:29:51.407Z,24.00
2022-08-22T22:32:56.457Z,23.90
2022-08-22T22:35:49.250Z,24.00
2022-08-22T22:38:41.402Z,23.90
2022-08-22T22:41:39.757Z,23.80
2022-08-22T22:44:39.038Z,23.90
2022-08-22T22:47:33.946Z,23.80
2022-08-22T22:50:32.279Z,23.70
2022-08-22T22:56:05.367Z,23.70
2022-08-22T22:59:01.100Z,23.80
2022-08-22T23:02:15.808Z,23.80
2022-08-22T23:05:16.245Z,23.70
2022-08-22T23:08:11.001Z,23.70
2022-08-22T23:11:03.970Z,23.60
2022-08-22T23:14:04.027Z,23.50
2022-08-22T23:19:44.328Z,23.60
2022-08-22T23:22:49.867Z,23.50
2022-08-22T23:25:42.720Z,23.50
2022-08-22T23:34:19.107Z,23.40
2022-08-22T23:37:10.895Z,23.50
2022-08-22T23:40:21.362Z,23.40
2022-08-22T23:43:13.037Z,23.40
2022-08-22T23:46:07.508Z,23.40
2022-08-22T23:51:38.974Z,23.20
2022-08-22T23:54:30.788Z,23.20
